createdAt,value
2018-05-26T00:01:11.051Z,60.30
2018-05-26T00:03:38.716Z,60.40
2018-05-26T00:06:06.338Z,60.70
2018-05-26T00:08:34.809Z,61.10
2018-05-26T00:11:03.241Z,61.10
2018-05-26T00:13:30.872Z,61.10
2018-05-26T00:15:58.580Z,61.20
2018-05-26T00:18:26.223Z,61.50
2018-05-26T00:20:53.895Z,61.40
2018-05-26T00:23:21.547Z,61.20
2018-05-26T00:25:49.159Z,61.10
2018-05-26T00:28:17.549Z,61.30
2018-05-26T00:30:45.185Z,61.20
2018-05-26T00:33:13.550Z,61.50
2018-05-26T00:35:41.227Z,61.50
2018-05-26T00:38:09.582Z,61.30
2018-05-26T00:40:37.222Z,61.20
2018-05-26T00:43:04.901Z,61.30
2018-05-26T00:45:32.621Z,61.30
2018-05-26T00:48:00.271Z,61.10
2018-05-26T00:50:28.251Z,61.40
2018-05-26T00:52:55.864Z,61.50
2018-05-26T00:55:23.535Z,62.10
2018-05-26T00:57:52.009Z,62.20
2018-05-26T01:00:20.453Z,63.10
2018-05-26T01:02:48.125Z,62.40
2018-05-26T01:05:15.846Z,62.60
2018-05-26T01:07:43.528Z,62.70
2018-05-26T01:10:11.118Z,62.90
2018-05-26T01:12:38.772Z,63.10
2018-05-26T01:15:06.423Z,63.30
2018-05-26T01:17:34.036Z,63.50
2018-05-26T01:20:02.450Z,63.90
2018-05-26T01:22:30.133Z,63.90
2018-05-26T01:24:57.776Z,64.10
2018-05-26T01:27:25.419Z,64.20
2018-05-26T01:29:53.216Z,64.60
2018-05-26T01:32:20.897Z,64.70
2018-05-26T01:34:48.531Z,65.00
2018-05-26T01:37:16.148Z,65.20
2018-05-26T01:39:43.839Z,65.40
2018-05-26T01:42:11.530Z,65.70
2018-05-26T01:44:39.203Z,65.50
2018-05-26T01:47:06.811Z,65.50
2018-05-26T01:49:34.426Z,65.70
2018-05-26T01:52:02.056Z,65.80
2018-05-26T01:54:29.673Z,66.30
2018-05-26T01:56:58.104Z,66.40
2018-05-26T01:59:25.764Z,66.40
2018-05-26T02:01:53.480Z,66.40
2018-05-26T02:04:21.120Z,66.50
2018-05-26T02:06:49.541Z,66.90
2018-05-26T02:09:17.161Z,66.80
2018-05-26T02:11:45.569Z,66.80
2018-05-26T02:14:13.300Z,66.80
2018-05-26T02:16:41.738Z,67.10
2018-05-26T02:19:09.336Z,67.00
2018-05-26T02:21:37.822Z,68.10
2018-05-26T02:24:06.259Z,67.50
2018-05-26T02:26:33.938Z,67.50
2018-05-26T02:29:01.580Z,67.60
2018-05-26T02:34:03.139Z,68.70
2018-05-26T02:36:30.915Z,68.00
2018-05-26T02:38:58.561Z,68.20
2018-05-26T02:41:26.203Z,68.50
2018-05-26T02:43:53.843Z,68.70
2018-05-26T02:46:22.265Z,69.80
2018-05-26T02:48:49.945Z,69.10
2018-05-26T02:51:17.547Z,69.40
2018-05-26T02:53:46.022Z,69.50
2018-05-26T02:56:14.383Z,69.90
2018-05-26T02:58:42.020Z,69.90
2018-05-26T03:01:09.745Z,70.00
2018-05-26T03:03:37.360Z,70.10
2018-05-26T03:06:10.720Z,70.10
2018-05-26T03:08:45.002Z,70.40
2018-05-26T03:11:18.574Z,70.40
2018-05-26T03:13:52.076Z,70.40
2018-05-26T03:19:25.306Z,70.50
2018-05-26T03:21:53.740Z,70.80
2018-05-26T03:24:21.468Z,70.70
2018-05-26T03:26:49.109Z,70.80
2018-05-26T03:29:17.502Z,70.80
2018-05-26T03:31:45.184Z,70.80
2018-05-26T03:34:12.812Z,70.80
2018-05-26T03:36:41.232Z,70.80
2018-05-26T03:39:08.869Z,70.70
2018-05-26T03:41:36.451Z,70.70
2018-05-26T03:44:04.133Z,70.60
2018-05-26T03:46:31.749Z,70.60
2018-05-26T03:48:59.410Z,70.60
2018-05-26T03:51:27.089Z,70.70
2018-05-26T03:53:54.709Z,70.70
2018-05-26T03:56:34.869Z,71.00
2018-05-26T03:59:15.286Z,71.00
2018-05-26T04:01:42.944Z,71.00
2018-05-26T04:04:10.556Z,71.00
2018-05-26T04:06:38.222Z,71.00
2018-05-26T04:09:06.583Z,71.00
2018-05-26T04:11:34.945Z,71.00
2018-05-26T04:14:02.607Z,70.90
2018-05-26T04:16:30.960Z,70.80
2018-05-26T04:18:58.596Z,70.80
2018-05-26T04:21:26.834Z,70.60
2018-05-26T04:23:56.040Z,70.50
2018-05-26T04:28:57.754Z,70.40
2018-05-26T04:31:25.358Z,70.10
2018-05-26T04:33:53.775Z,69.70
2018-05-26T04:36:21.442Z,69.70
2018-05-26T04:38:49.065Z,69.50
2018-05-26T04:41:17.479Z,69.30
2018-05-26T04:43:45.111Z,69.30
2018-05-26T04:46:12.815Z,69.00
2018-05-26T04:48:40.409Z,68.70
2018-05-26T04:51:08.156Z,68.60
2018-05-26T04:53:35.804Z,67.90
2018-05-26T04:56:03.385Z,68.20
2018-05-26T04:58:31.003Z,67.90
2018-05-26T05:00:58.622Z,67.80
2018-05-26T05:03:27.115Z,67.60
2018-05-26T05:05:54.788Z,67.50
2018-05-26T05:08:22.484Z,67.30
2018-05-26T05:10:50.530Z,67.20
2018-05-26T05:13:18.158Z,66.90
2018-05-26T05:15:46.580Z,66.70
2018-05-26T05:18:14.212Z,66.60
2018-05-26T05:20:41.825Z,66.40
2018-05-26T05:23:10.956Z,66.00
2018-05-26T05:25:39.354Z,66.10
2018-05-26T05:28:07.001Z,66.10
2018-05-26T05:30:34.612Z,66.30
2018-05-26T05:33:02.256Z,66.40
2018-05-26T05:35:29.906Z,66.50
2018-05-26T05:37:57.583Z,66.80
2018-05-26T05:40:25.178Z,67.00
2018-05-26T05:42:53.610Z,67.50
2018-05-26T05:45:21.276Z,67.60
2018-05-26T05:47:48.912Z,67.90
2018-05-26T05:50:16.527Z,68.10
2018-05-26T05:52:44.111Z,68.40
2018-05-26T05:55:12.643Z,68.70
2018-05-26T05:57:40.243Z,68.70
2018-05-26T06:00:08.409Z,68.70
2018-05-26T06:02:36.164Z,68.50
2018-05-26T06:05:03.796Z,68.20
2018-05-26T06:07:31.466Z,67.90
2018-05-26T06:09:59.081Z,67.40
2018-05-26T06:12:26.782Z,66.70
2018-05-26T06:14:54.428Z,65.80
2018-05-26T06:17:22.049Z,64.90
2018-05-26T06:19:50.997Z,63.70
2018-05-26T06:22:18.636Z,63.60
2018-05-26T06:24:46.307Z,63.10
2018-05-26T06:27:13.930Z,62.60
2018-05-26T06:29:42.342Z,61.80
2018-05-26T06:32:09.949Z,61.80
2018-05-26T06:34:37.625Z,61.50
2018-05-26T06:37:06.764Z,60.30
2018-05-26T06:39:34.394Z,60.30
2018-05-26T06:42:02.747Z,58.90
2018-05-26T06:44:31.141Z,58.10
2018-05-26T06:46:58.731Z,58.10
2018-05-26T06:49:27.023Z,57.10
2018-05-26T06:51:54.684Z,57.10
2018-05-26T06:54:22.347Z,56.70
2018-05-26T06:56:49.994Z,56.10
2018-05-26T06:59:17.624Z,56.30
2018-05-26T07:01:45.986Z,54.60
2018-05-26T07:04:13.678Z,54.50
2018-05-26T07:06:41.350Z,54.10
2018-05-26T07:09:08.969Z,52.60
2018-05-26T07:11:37.332Z,50.90
2018-05-26T07:14:04.952Z,50.90
2018-05-26T07:16:32.565Z,50.20
2018-05-26T07:19:01.025Z,48.60
2018-05-26T07:21:28.613Z,49.10
2018-05-26T07:23:56.975Z,48.50
2018-05-26T07:26:24.603Z,48.50
2018-05-26T07:28:52.282Z,48.10
2018-05-26T07:31:19.903Z,47.80
2018-05-26T07:33:47.587Z,47.20
2018-05-26T07:36:15.500Z,47.30
2018-05-26T07:38:43.865Z,45.90
2018-05-26T07:41:11.501Z,45.90
2018-05-26T07:43:39.100Z,46.00
2018-05-26T07:46:07.525Z,44.70
2018-05-26T07:48:35.105Z,44.70
2018-05-26T07:51:02.746Z,45.00
2018-05-26T07:53:30.351Z,44.30
2018-05-26T07:55:58.802Z,43.70
2018-05-26T07:58:26.497Z,43.70
2018-05-26T08:00:54.045Z,43.50
2018-05-26T08:03:22.446Z,43.10
2018-05-26T08:05:50.829Z,42.60
2018-05-26T08:08:18.472Z,42.50
2018-05-26T08:10:46.987Z,42.30
2018-05-26T08:13:14.616Z,42.20
2018-05-26T08:15:43.020Z,41.90
2018-05-26T08:18:10.669Z,41.90
2018-05-26T08:20:39.093Z,41.90
2018-05-26T08:23:06.758Z,42.50
2018-05-26T08:25:34.529Z,41.60
2018-05-26T08:28:02.273Z,41.40
2018-05-26T08:30:30.445Z,40.90
2018-05-26T08:32:58.162Z,41.10
2018-05-26T08:35:27.159Z,41.00
2018-05-26T08:37:55.559Z,40.70
2018-05-26T08:40:23.210Z,40.70
2018-05-26T08:42:50.979Z,40.60
2018-05-26T08:45:18.619Z,40.40
2018-05-26T08:47:47.053Z,40.20
2018-05-26T08:50:15.294Z,40.20
2018-05-26T08:52:43.010Z,39.10
2018-05-26T08:55:10.676Z,39.10
2018-05-26T08:57:38.346Z,39.10
2018-05-26T09:00:06.812Z,40.00
2018-05-26T09:02:34.577Z,39.70
2018-05-26T09:05:02.173Z,40.20
2018-05-26T09:07:29.819Z,40.80
2018-05-26T09:09:58.233Z,40.60
2018-05-26T09:12:26.008Z,40.50
2018-05-26T09:14:53.628Z,40.80
2018-05-26T09:17:21.193Z,40.20
2018-05-26T09:19:49.585Z,40.10
2018-05-26T09:22:17.290Z,40.10
2018-05-26T09:24:44.932Z,39.90
2018-05-26T09:27:12.562Z,39.60
2018-05-26T09:29:40.293Z,39.30
2018-05-26T09:32:08.708Z,39.40
2018-05-26T09:34:36.328Z,39.30
2018-05-26T09:37:04.039Z,39.40
2018-05-26T09:39:31.621Z,40.60
2018-05-26T09:41:59.280Z,40.00
2018-05-26T09:44:26.872Z,40.40
2018-05-26T09:46:54.529Z,40.20
2018-05-26T09:49:22.164Z,39.70
2018-05-26T09:51:49.923Z,39.40
2018-05-26T09:54:17.559Z,39.50
2018-05-26T09:56:45.196Z,39.60
2018-05-26T09:59:13.625Z,39.50
2018-05-26T10:01:41.321Z,39.40
2018-05-26T10:04:08.956Z,39.30
2018-05-26T10:06:36.616Z,40.00
2018-05-26T10:09:04.280Z,39.30
2018-05-26T10:11:31.895Z,39.30
2018-05-26T10:13:59.511Z,39.30
2018-05-26T10:16:27.125Z,39.00
2018-05-26T10:18:54.758Z,38.60
2018-05-26T10:21:23.200Z,39.60
2018-05-26T10:23:50.806Z,39.60
2018-05-26T10:26:19.175Z,40.10
2018-05-26T10:28:46.842Z,40.10
2018-05-26T10:31:15.232Z,39.70
2018-05-26T10:33:42.852Z,39.70
2018-05-26T10:36:11.885Z,39.50
2018-05-26T10:38:39.524Z,38.70
2018-05-26T10:41:07.884Z,38.00
2018-05-26T10:43:35.465Z,38.00
2018-05-26T10:46:15.824Z,38.40
2018-05-26T10:48:44.183Z,38.20
2018-05-26T10:51:12.423Z,38.20
2018-05-26T10:53:40.019Z,38.10
2018-05-26T10:56:08.523Z,37.30
2018-05-26T10:58:36.572Z,37.30
2018-05-26T11:01:04.333Z,36.80
2018-05-26T11:03:31.917Z,36.70
2018-05-26T11:06:00.346Z,36.50
2018-05-26T11:08:28.496Z,36.50
2018-05-26T11:10:56.201Z,36.30
2018-05-26T11:13:23.833Z,36.20
2018-05-26T11:15:51.464Z,36.20
2018-05-26T11:18:19.149Z,36.10
2018-05-26T11:20:46.991Z,36.00
2018-05-26T11:23:14.647Z,36.10
2018-05-26T11:25:42.396Z,36.10
2018-05-26T11:28:10.748Z,37.00
2018-05-26T11:30:38.393Z,37.00
2018-05-26T11:33:06.016Z,36.90
2018-05-26T11:35:33.637Z,36.40
2018-05-26T11:38:02.668Z,36.00
2018-05-26T11:40:30.274Z,35.90
2018-05-26T11:42:57.904Z,35.60
2018-05-26T11:45:25.554Z,35.40
2018-05-26T11:47:53.148Z,34.50
2018-05-26T11:50:20.813Z,33.90
2018-05-26T11:52:48.434Z,33.80
2018-05-26T11:55:16.147Z,33.80
2018-05-26T11:57:44.627Z,33.00
2018-05-26T12:00:12.240Z,33.00
2018-05-26T12:02:39.849Z,32.00
2018-05-26T12:05:07.484Z,31.80
2018-05-26T12:07:35.072Z,31.90
2018-05-26T12:10:02.727Z,32.60
2018-05-26T12:12:31.850Z,32.20
2018-05-26T12:15:00.881Z,31.60
2018-05-26T12:17:29.305Z,31.50
2018-05-26T12:19:57.740Z,28.80
2018-05-26T12:22:25.358Z,28.70
2018-05-26T12:24:53.749Z,27.30
2018-05-26T12:27:21.386Z,27.30
2018-05-26T12:29:49.808Z,26.60
2018-05-26T12:32:17.469Z,26.50
2018-05-26T12:34:45.084Z,26.40
2018-05-26T12:37:13.524Z,26.90
2018-05-26T12:39:41.109Z,26.90
2018-05-26T12:42:08.744Z,26.00
2018-05-26T12:44:36.377Z,25.00
2018-05-26T12:47:03.976Z,24.80
2018-05-26T12:49:31.616Z,24.00
2018-05-26T12:52:00.192Z,23.60
2018-05-26T12:54:27.848Z,24.30
2018-05-26T12:56:55.453Z,24.20
2018-05-26T12:59:24.039Z,23.70
2018-05-26T13:01:52.999Z,23.50
2018-05-26T13:04:20.628Z,23.20
2018-05-26T13:06:48.278Z,24.00
2018-05-26T13:09:15.935Z,24.00
2018-05-26T13:11:44.382Z,23.20
2018-05-26T13:14:11.986Z,23.20
2018-05-26T13:16:40.407Z,24.50
2018-05-26T13:19:07.991Z,24.50
2018-05-26T13:21:36.228Z,23.90
2018-05-26T13:24:03.829Z,23.10
2018-05-26T13:26:31.452Z,22.60
2018-05-26T13:28:59.816Z,21.90
2018-05-26T13:31:27.449Z,21.50
2018-05-26T13:33:55.797Z,21.60
2018-05-26T13:36:23.999Z,21.60
2018-05-26T13:38:52.408Z,21.00
2018-05-26T13:41:20.039Z,21.50
2018-05-26T13:43:48.463Z,20.20
2018-05-26T13:46:16.075Z,20.20
2018-05-26T13:48:44.549Z,20.70
2018-05-26T13:51:12.988Z,21.20
2018-05-26T13:53:40.769Z,21.20
2018-05-26T13:56:09.095Z,23.40
2018-05-26T13:58:36.767Z,23.40
2018-05-26T14:01:04.387Z,25.20
2018-05-26T14:03:32.793Z,29.10
2018-05-26T14:06:00.669Z,29.10
2018-05-26T14:08:28.370Z,31.60
2018-05-26T14:10:56.003Z,33.80
2018-05-26T14:13:23.628Z,35.00
2018-05-26T14:15:52.007Z,37.10
2018-05-26T14:18:20.389Z,37.40
2018-05-26T14:20:48.745Z,37.80
2018-05-26T14:23:17.870Z,38.30
2018-05-26T14:25:46.274Z,38.60
2018-05-26T14:28:13.904Z,38.50
2018-05-26T14:30:42.308Z,39.00
2018-05-26T14:33:10.711Z,39.10
2018-05-26T14:35:38.373Z,39.10
2018-05-26T14:38:06.016Z,39.60
2018-05-26T14:40:33.607Z,39.70
2018-05-26T14:43:01.211Z,40.00
2018-05-26T14:45:28.796Z,40.20
2018-05-26T14:47:57.179Z,39.80
2018-05-26T14:50:24.768Z,38.90
2018-05-26T14:52:52.364Z,38.80
2018-05-26T14:55:20.731Z,37.40
2018-05-26T14:57:49.829Z,36.90
2018-05-26T15:00:18.219Z,36.80
2018-05-26T15:02:45.842Z,36.80
2018-05-26T15:05:15.022Z,34.00
2018-05-26T15:07:42.651Z,34.00
2018-05-26T15:10:10.274Z,32.40
2018-05-26T15:12:38.940Z,32.60
2018-05-26T15:15:06.592Z,32.60
2018-05-26T15:17:34.250Z,33.10
2018-05-26T15:20:01.896Z,31.90
2018-05-26T15:22:29.517Z,29.70
2018-05-26T15:24:57.214Z,27.80
2018-05-26T15:27:24.828Z,26.20
2018-05-26T15:29:53.224Z,24.70
2018-05-26T15:32:21.763Z,24.60
2018-05-26T15:34:49.380Z,23.80
2018-05-26T15:37:16.992Z,23.40
2018-05-26T15:39:44.630Z,22.80
2018-05-26T15:42:12.275Z,23.30
2018-05-26T15:44:39.898Z,24.20
2018-05-26T15:47:08.428Z,27.20
2018-05-26T15:49:36.094Z,27.10
2018-05-26T15:52:03.750Z,28.60
2018-05-26T15:54:31.413Z,28.60
2018-05-26T15:56:59.025Z,28.00
2018-05-26T15:59:26.685Z,27.00
2018-05-26T16:01:55.039Z,26.50
2018-05-26T16:04:22.667Z,26.50
2018-05-26T16:06:50.876Z,27.60
2018-05-26T16:09:19.272Z,30.70
2018-05-26T16:11:48.420Z,31.50
2018-05-26T16:14:16.036Z,31.50
2018-05-26T16:16:43.691Z,32.60
2018-05-26T16:19:12.059Z,35.20
2018-05-26T16:21:41.303Z,36.30
2018-05-26T16:24:08.896Z,36.30
2018-05-26T16:26:36.550Z,36.60
2018-05-26T16:29:04.205Z,36.40
2018-05-26T16:31:31.829Z,36.60
2018-05-26T16:33:59.428Z,36.50
2018-05-26T16:36:27.061Z,36.90
2018-05-26T16:38:54.717Z,37.20
2018-05-26T16:41:22.357Z,37.10
2018-05-26T16:43:50.000Z,37.40
2018-05-26T16:46:18.400Z,37.90
2018-05-26T16:48:46.052Z,37.90
2018-05-26T16:51:14.487Z,38.00
2018-05-26T16:53:42.106Z,38.00
2018-05-26T16:56:10.747Z,38.30
2018-05-26T16:58:39.135Z,38.10
2018-05-26T17:01:06.952Z,38.00
2018-05-26T17:03:34.554Z,37.90
2018-05-26T17:06:02.174Z,38.20
2018-05-26T17:08:30.713Z,38.50
2018-05-26T17:10:59.132Z,39.20
2018-05-26T17:13:26.761Z,39.10
2018-05-26T17:15:55.185Z,40.00
2018-05-26T17:18:23.391Z,40.00
2018-05-26T17:20:51.000Z,40.10
2018-05-26T17:23:18.617Z,40.40
2018-05-26T17:25:46.978Z,40.90
2018-05-26T17:28:14.591Z,40.90
2018-05-26T17:30:42.479Z,41.00
2018-05-26T17:33:10.073Z,40.90
2018-05-26T17:35:37.668Z,41.10
2018-05-26T17:38:05.970Z,40.80
2018-05-26T17:40:33.606Z,41.00
2018-05-26T17:43:01.177Z,41.30
2018-05-26T17:45:28.784Z,41.60
2018-05-26T17:47:56.408Z,41.50
2018-05-26T17:50:24.086Z,41.70
2018-05-26T17:52:51.755Z,42.10
2018-05-26T17:55:19.346Z,43.20
2018-05-26T17:57:47.782Z,42.50
2018-05-26T18:00:15.410Z,42.50
2018-05-26T18:02:43.045Z,42.40
2018-05-26T18:05:10.673Z,42.80
2018-05-26T18:07:38.312Z,43.10
2018-05-26T18:10:05.946Z,43.40
2018-05-26T18:12:33.573Z,43.90
2018-05-26T18:15:02.011Z,44.90
2018-05-26T18:17:30.214Z,44.80
2018-05-26T18:19:57.836Z,45.50
2018-05-26T18:22:25.437Z,46.00
2018-05-26T18:24:53.775Z,45.80
2018-05-26T18:27:21.431Z,46.30
2018-05-26T18:29:49.038Z,46.70
2018-05-26T18:32:16.669Z,47.30
2018-05-26T18:34:44.257Z,47.60
2018-05-26T18:37:11.962Z,47.80
2018-05-26T18:39:39.599Z,47.90
2018-05-26T18:42:08.029Z,48.40
2018-05-26T18:44:36.606Z,48.40
2018-05-26T18:47:04.271Z,48.60
2018-05-26T18:49:31.892Z,48.90
2018-05-26T18:52:00.498Z,49.80
2018-05-26T18:54:28.155Z,49.80
2018-05-26T18:56:55.779Z,50.30
2018-05-26T18:59:23.373Z,50.70
2018-05-26T19:01:50.990Z,51.20
2018-05-26T19:04:18.604Z,52.70
2018-05-26T19:06:46.294Z,53.50
2018-05-26T19:09:13.953Z,54.70
2018-05-26T19:11:41.547Z,55.80
2018-05-26T19:14:09.982Z,57.70
2018-05-26T19:16:37.580Z,57.70
2018-05-26T19:19:05.248Z,58.50
2018-05-26T19:21:33.673Z,59.70
2018-05-26T19:24:01.382Z,59.70
2018-05-26T19:26:29.040Z,60.60
2018-05-26T19:28:56.753Z,61.30
2018-05-26T19:31:24.405Z,62.00
2018-05-26T19:33:52.014Z,62.60
2018-05-26T19:39:13.029Z,64.20
2018-05-26T19:41:40.657Z,64.60
2018-05-26T19:44:08.359Z,64.90
2018-05-26T19:46:36.042Z,65.30
2018-05-26T19:49:04.469Z,65.80
2018-05-26T19:51:32.135Z,65.80
2018-05-26T19:53:59.800Z,65.90
2018-05-26T19:56:28.509Z,66.00
2018-05-26T19:58:56.147Z,66.30
2018-05-26T20:01:24.397Z,66.30
2018-05-26T20:03:52.058Z,66.60
2018-05-26T20:06:19.693Z,67.10
2018-05-26T20:08:48.099Z,67.30
2018-05-26T20:11:16.414Z,67.30
2018-05-26T20:13:44.003Z,67.40
2018-05-26T20:16:12.451Z,68.10
2018-05-26T20:18:40.078Z,67.90
2018-05-26T20:21:07.708Z,68.10
2018-05-26T20:23:36.147Z,68.90
2018-05-26T20:26:03.770Z,68.90
2018-05-26T20:28:31.387Z,69.00
2018-05-26T20:30:59.027Z,69.20
2018-05-26T20:33:26.681Z,69.40
2018-05-26T20:35:54.367Z,69.70
2018-05-26T20:38:21.989Z,70.00
2018-05-26T20:40:49.640Z,70.40
2018-05-26T20:43:17.242Z,70.70
2018-05-26T20:45:44.838Z,70.80
2018-05-26T20:48:13.216Z,70.90
2018-05-26T20:50:41.599Z,70.90
2018-05-26T20:53:10.032Z,70.90
2018-05-26T20:55:37.687Z,70.80
2018-05-26T20:58:05.322Z,71.00
2018-05-26T21:00:32.947Z,71.10
2018-05-26T21:03:01.351Z,71.40
2018-05-26T21:05:29.061Z,71.40
2018-05-26T21:07:56.685Z,71.50
2018-05-26T21:10:24.318Z,71.60
2018-05-26T21:12:52.757Z,72.00
2018-05-26T21:15:20.414Z,72.00
2018-05-26T21:17:48.010Z,72.30
2018-05-26T21:20:16.398Z,72.80
2018-05-26T21:22:44.795Z,72.80
2018-05-26T21:25:12.463Z,73.10
2018-05-26T21:27:40.087Z,73.40
2018-05-26T21:30:08.488Z,73.90
2018-05-26T21:32:36.110Z,73.80
2018-05-26T21:35:05.310Z,74.40
2018-05-26T21:37:33.010Z,74.50
2018-05-26T21:40:00.659Z,74.70
2018-05-26T21:42:28.563Z,74.90
2018-05-26T21:44:56.208Z,75.40
2018-05-26T21:47:23.860Z,75.50
2018-05-26T21:49:51.453Z,75.70
2018-05-26T21:52:19.074Z,76.10
2018-05-26T21:54:46.693Z,76.20
2018-05-26T21:57:15.090Z,76.60
2018-05-26T21:59:44.081Z,76.80
2018-05-26T22:02:12.508Z,77.00
2018-05-26T22:04:40.767Z,77.00
2018-05-26T22:07:08.450Z,77.00
2018-05-26T22:09:36.314Z,77.20
2018-05-26T22:12:04.503Z,77.40
2018-05-26T22:14:32.132Z,77.60
2018-05-26T22:16:59.762Z,77.80
2018-05-26T22:19:28.440Z,78.20
2018-05-26T22:21:56.718Z,78.20
2018-05-26T22:24:25.248Z,78.50
2018-05-26T22:26:52.914Z,78.50
2018-05-26T22:29:20.623Z,78.70
2018-05-26T22:31:48.212Z,78.80
2018-05-26T22:34:15.846Z,79.20
2018-05-26T22:36:44.290Z,79.80
2018-05-26T22:39:11.884Z,79.70
2018-05-26T22:41:40.300Z,80.30
2018-05-26T22:44:07.945Z,80.20
2018-05-26T22:46:35.584Z,80.50
2018-05-26T22:49:03.970Z,80.90
2018-05-26T22:51:32.370Z,81.10
2018-05-26T22:54:00.026Z,81.10
2018-05-26T22:56:27.687Z,81.40
2018-05-26T22:58:55.349Z,81.60
2018-05-26T23:01:23.031Z,82.10
2018-05-26T23:03:50.637Z,82.30
2018-05-26T23:06:19.074Z,82.70
2018-05-26T23:08:46.698Z,82.70
2018-05-26T23:11:15.297Z,83.10
2018-05-26T23:13:42.962Z,83.00
2018-05-26T23:16:10.578Z,83.10
2018-05-26T23:18:38.891Z,83.20
2018-05-26T23:21:06.552Z,83.30
2018-05-26T23:23:34.211Z,83.40
2018-05-26T23:26:01.832Z,83.60
2018-05-26T23:28:29.462Z,83.70
2018-05-26T23:30:57.094Z,83.60
2018-05-26T23:33:24.801Z,83.70
2018-05-26T23:35:53.935Z,83.40
2018-05-26T23:38:22.318Z,83.10
2018-05-26T23:40:49.974Z,83.10
2018-05-26T23:43:18.348Z,83.40
2018-05-26T23:45:46.751Z,83.60
2018-05-26T23:48:14.369Z,83.50
2018-05-26T23:50:41.995Z,83.60
2018-05-26T23:53:09.654Z,83.60
2018-05-26T23:55:37.259Z,83.60
2018-05-26T23:58:05.690Z,83.90
